createdAt,value
2018-10-17T00:00:55.784Z,14.47
2018-10-17T00:03:24.062Z,14.47
2018-10-17T00:05:52.153Z,14.44
2018-10-17T00:08:20.483Z,14.45
2018-10-17T00:10:48.598Z,14.42
2018-10-17T00:13:16.733Z,14.41
2018-10-17T00:15:44.859Z,14.41
2018-10-17T00:18:12.983Z,14.42
2018-10-17T00:20:41.111Z,14.42
2018-10-17T00:23:09.490Z,14.41
2018-10-17T00:25:37.600Z,14.41
2018-10-17T00:28:05.975Z,14.40
2018-10-17T00:30:34.095Z,14.40
2018-10-17T00:33:02.423Z,14.40
2018-10-17T00:35:30.793Z,14.38
2018-10-17T00:37:58.911Z,14.36
2018-10-17T00:40:27.134Z,14.34
2018-10-17T00:42:56.625Z,14.31
2018-10-17T00:45:24.922Z,14.30
2018-10-17T00:47:53.299Z,14.32
2018-10-17T00:50:21.707Z,14.31
2018-10-17T00:52:50.058Z,14.29
2018-10-17T00:55:18.176Z,14.26
2018-10-17T00:57:46.798Z,14.25
2018-10-17T01:00:14.922Z,14.23
2018-10-17T01:02:43.264Z,14.24
2018-10-17T01:05:11.450Z,14.23
2018-10-17T01:07:39.536Z,14.23
2018-10-17T01:10:07.681Z,14.21
2018-10-17T01:12:35.859Z,14.22
2018-10-17T01:15:04.413Z,14.21
2018-10-17T01:17:32.643Z,14.21
2018-10-17T01:20:00.771Z,14.21
2018-10-17T01:22:29.347Z,14.21
2018-10-17T01:24:57.796Z,14.20
2018-10-17T01:27:25.983Z,14.19
2018-10-17T01:29:54.195Z,14.18
2018-10-17T01:32:22.335Z,14.16
2018-10-17T01:34:50.458Z,14.15
2018-10-17T01:37:18.723Z,14.14
2018-10-17T01:39:46.843Z,14.13
2018-10-17T01:42:15.450Z,14.12
2018-10-17T01:44:43.565Z,14.10
2018-10-17T01:47:11.805Z,14.08
2018-10-17T01:52:14.507Z,14.04
2018-10-17T01:54:42.774Z,14.01
2018-10-17T01:57:11.031Z,13.98
2018-10-17T01:59:39.163Z,13.96
2018-10-17T02:02:07.483Z,13.93
2018-10-17T02:04:35.625Z,13.91
2018-10-17T02:07:05.085Z,13.86
2018-10-17T02:09:33.488Z,13.83
2018-10-17T02:12:01.815Z,13.81
2018-10-17T02:14:29.966Z,13.80
2018-10-17T02:16:58.349Z,13.77
2018-10-17T02:19:26.561Z,13.75
2018-10-17T02:21:54.679Z,13.74
2018-10-17T02:24:22.893Z,13.72
2018-10-17T02:26:51.052Z,13.73
2018-10-17T02:29:19.175Z,13.73
2018-10-17T02:31:47.621Z,13.73
2018-10-17T02:34:15.887Z,13.73
2018-10-17T02:36:44.071Z,13.72
2018-10-17T02:39:12.591Z,13.71
2018-10-17T02:41:40.707Z,13.68
2018-10-17T02:44:08.983Z,13.65
2018-10-17T02:46:37.334Z,13.65
2018-10-17T02:49:05.698Z,13.63
2018-10-17T02:51:33.903Z,13.59
2018-10-17T02:54:02.411Z,13.56
2018-10-17T02:56:31.199Z,13.49
2018-10-17T02:58:59.401Z,13.48
2018-10-17T03:01:27.564Z,13.47
2018-10-17T03:03:55.703Z,13.45
2018-10-17T03:06:23.848Z,13.43
2018-10-17T03:08:52.071Z,13.41
2018-10-17T03:11:20.756Z,13.39
2018-10-17T03:13:49.320Z,13.36
2018-10-17T03:16:17.472Z,13.38
2018-10-17T03:18:45.629Z,13.38
2018-10-17T03:21:13.760Z,13.36
2018-10-17T03:23:42.036Z,13.36
2018-10-17T03:26:10.187Z,13.34
2018-10-17T03:28:38.315Z,13.31
2018-10-17T03:31:06.693Z,13.28
2018-10-17T03:33:34.744Z,13.29
2018-10-17T03:36:03.000Z,13.28
2018-10-17T03:38:31.092Z,13.25
2018-10-17T03:40:59.800Z,13.18
2018-10-17T03:43:28.152Z,13.16
2018-10-17T03:45:56.287Z,13.14
2018-10-17T03:48:24.604Z,13.13
2018-10-17T03:50:52.736Z,13.13
2018-10-17T03:53:20.976Z,13.12
2018-10-17T03:55:49.076Z,13.10
2018-10-17T03:58:17.220Z,13.11
2018-10-17T04:00:45.363Z,13.11
2018-10-17T04:03:13.709Z,13.09
2018-10-17T04:05:42.152Z,13.10
2018-10-17T04:08:10.280Z,13.10
2018-10-17T04:10:38.406Z,13.07
2018-10-17T04:13:06.635Z,13.06
2018-10-17T04:15:34.924Z,13.07
2018-10-17T04:18:03.060Z,13.07
2018-10-17T04:20:31.397Z,13.05
2018-10-17T04:22:59.539Z,13.05
2018-10-17T04:25:27.795Z,13.05
2018-10-17T04:27:56.176Z,13.04
2018-10-17T04:30:25.056Z,13.02
2018-10-17T04:32:53.260Z,13.03
2018-10-17T04:35:21.629Z,13.00
2018-10-17T04:37:49.743Z,13.02
2018-10-17T04:40:17.883Z,13.01
2018-10-17T04:42:46.036Z,13.01
2018-10-17T04:45:14.163Z,13.01
2018-10-17T04:47:42.707Z,13.01
2018-10-17T04:50:11.339Z,13.02
2018-10-17T04:52:40.025Z,13.02
2018-10-17T04:55:09.106Z,13.03
2018-10-17T04:57:37.324Z,13.00
2018-10-17T05:00:07.489Z,12.97
2018-10-17T05:02:35.632Z,12.94
2018-10-17T05:05:03.788Z,12.93
2018-10-17T05:07:31.910Z,12.92
2018-10-17T05:10:00.144Z,12.88
2018-10-17T05:12:28.524Z,12.87
2018-10-17T05:14:56.693Z,12.87
2018-10-17T05:17:24.831Z,12.84
2018-10-17T05:19:52.952Z,12.87
2018-10-17T05:22:21.260Z,12.86
2018-10-17T05:24:49.393Z,12.87
2018-10-17T05:27:17.517Z,12.85
2018-10-17T05:29:45.660Z,12.80
2018-10-17T05:32:13.763Z,12.79
2018-10-17T05:34:41.889Z,12.79
2018-10-17T05:37:10.114Z,12.75
2018-10-17T05:39:38.325Z,12.73
2018-10-17T05:42:06.627Z,12.73
2018-10-17T05:44:34.848Z,12.71
2018-10-17T05:47:02.948Z,12.70
2018-10-17T05:49:31.227Z,12.69
2018-10-17T05:52:00.013Z,12.65
2018-10-17T05:54:28.200Z,12.67
2018-10-17T05:56:56.407Z,12.64
2018-10-17T05:59:24.675Z,12.64
2018-10-17T06:01:53.148Z,12.63
2018-10-17T06:04:21.252Z,12.62
2018-10-17T06:06:49.460Z,12.61
2018-10-17T06:09:17.851Z,12.59
2018-10-17T06:11:46.575Z,12.59
2018-10-17T06:22:45.906Z,12.52
2018-10-17T06:25:14.399Z,12.51
2018-10-17T06:27:42.500Z,12.51
2018-10-17T06:30:11.315Z,12.47
2018-10-17T06:32:39.957Z,12.41
2018-10-17T06:35:08.498Z,12.37
2018-10-17T06:37:37.158Z,12.31
2018-10-17T06:40:06.246Z,12.33
2018-10-17T06:42:34.673Z,12.37
2018-10-17T06:45:03.515Z,12.37
2018-10-17T06:47:31.700Z,12.40
2018-10-17T06:49:59.898Z,12.44
2018-10-17T06:52:28.237Z,12.47
2018-10-17T06:54:56.434Z,12.51
2018-10-17T06:57:24.605Z,12.55
2018-10-17T06:59:52.779Z,12.60
2018-10-17T07:02:21.228Z,12.63
2018-10-17T07:04:49.621Z,12.69
2018-10-17T07:07:17.843Z,12.73
2018-10-17T07:09:46.220Z,12.79
2018-10-17T07:12:14.382Z,12.83
2018-10-17T07:14:42.566Z,12.88
2018-10-17T07:17:11.377Z,12.93
2018-10-17T07:19:39.728Z,12.98
2018-10-17T07:22:08.106Z,13.06
2018-10-17T07:24:36.445Z,13.11
2018-10-17T07:27:05.489Z,13.18
2018-10-17T07:29:33.841Z,13.24
2018-10-17T07:32:01.984Z,13.31
2018-10-17T07:34:30.308Z,13.37
2018-10-17T07:36:58.582Z,13.46
2018-10-17T07:39:27.050Z,13.53
2018-10-17T07:41:55.522Z,13.61
2018-10-17T07:44:23.685Z,13.68
2018-10-17T07:46:52.197Z,13.75
2018-10-17T07:49:20.632Z,13.82
2018-10-17T07:51:49.054Z,13.90
2018-10-17T07:54:17.503Z,13.97
2018-10-17T08:03:21.077Z,14.05
2018-10-17T08:05:49.303Z,13.99
2018-10-17T08:08:17.440Z,14.03
2018-10-17T08:10:45.561Z,14.12
2018-10-17T08:13:13.838Z,14.20
2018-10-17T08:15:42.012Z,14.29
2018-10-17T08:18:10.216Z,14.35
2018-10-17T08:20:38.339Z,14.41
2018-10-17T08:23:06.532Z,14.48
2018-10-17T08:25:34.914Z,14.53
2018-10-17T08:28:03.636Z,14.60
2018-10-17T08:30:31.984Z,14.66
2018-10-17T08:33:00.359Z,14.77
2018-10-17T08:35:28.650Z,14.84
2018-10-17T08:37:56.885Z,14.91
2018-10-17T08:40:25.488Z,14.99
2018-10-17T08:42:53.628Z,15.08
2018-10-17T08:45:21.940Z,15.15
2018-10-17T08:47:50.302Z,15.22
2018-10-17T08:50:18.977Z,15.31
2018-10-17T08:52:47.077Z,15.42
2018-10-17T08:55:15.304Z,15.48
2018-10-17T08:57:43.433Z,15.60
2018-10-17T09:00:11.572Z,15.71
2018-10-17T09:02:39.728Z,15.85
2018-10-17T09:05:07.871Z,16.05
2018-10-17T09:07:36.015Z,16.21
2018-10-17T09:10:04.128Z,16.36
2018-10-17T09:12:32.560Z,16.45
2018-10-17T09:15:01.002Z,16.54
2018-10-17T09:17:29.146Z,16.62
2018-10-17T09:19:57.679Z,16.69
2018-10-17T09:22:32.117Z,16.80
2018-10-17T09:25:00.297Z,16.88
2018-10-17T09:27:28.371Z,16.95
2018-10-17T09:29:56.514Z,17.01
2018-10-17T09:32:24.638Z,17.07
2018-10-17T09:34:52.834Z,17.12
2018-10-17T09:37:20.936Z,17.19
2018-10-17T09:39:49.063Z,17.27
2018-10-17T09:42:17.227Z,17.37
2018-10-17T09:44:45.360Z,17.43
2018-10-17T09:47:13.504Z,17.54
2018-10-17T09:49:41.636Z,17.64
2018-10-17T09:52:09.837Z,17.73
2018-10-17T09:54:37.901Z,17.84
2018-10-17T09:57:06.070Z,17.93
2018-10-17T09:59:34.196Z,18.01
2018-10-17T10:02:02.372Z,18.07
2018-10-17T10:04:30.465Z,18.11
2018-10-17T10:06:58.607Z,18.19
2018-10-17T10:09:26.759Z,18.26
2018-10-17T10:11:54.888Z,18.31
2018-10-17T10:14:23.017Z,18.35
2018-10-17T10:16:51.736Z,18.40
2018-10-17T10:19:20.120Z,18.47
2018-10-17T10:21:49.385Z,18.53
2018-10-17T10:24:17.576Z,18.60
2018-10-17T10:26:45.647Z,18.71
2018-10-17T10:29:13.815Z,18.83
2018-10-17T10:31:42.008Z,18.93
2018-10-17T10:34:10.481Z,19.03
2018-10-17T10:36:38.816Z,19.17
2018-10-17T10:39:09.064Z,19.31
2018-10-17T10:41:37.191Z,19.48
2018-10-17T10:44:05.465Z,19.59
2018-10-17T10:46:33.631Z,19.73
2018-10-17T10:49:01.838Z,19.85
2018-10-17T10:51:29.943Z,19.99
2018-10-17T10:53:58.313Z,20.11
2018-10-17T10:56:26.428Z,20.24
2018-10-17T10:58:54.572Z,20.32
2018-10-17T11:01:22.911Z,20.45
2018-10-17T11:03:51.176Z,20.60
2018-10-17T11:06:19.793Z,20.76
2018-10-17T11:08:47.922Z,20.86
2018-10-17T11:11:16.975Z,20.93
2018-10-17T11:13:45.155Z,20.98
2018-10-17T11:16:13.523Z,21.03
2018-10-17T11:18:41.653Z,21.10
2018-10-17T11:21:09.900Z,21.08
2018-10-17T11:23:38.193Z,21.13
2018-10-17T11:26:06.304Z,21.24
2018-10-17T11:28:34.438Z,21.39
2018-10-17T11:31:02.581Z,21.52
2018-10-17T11:33:31.606Z,21.71
2018-10-17T11:35:59.728Z,21.85
2018-10-17T11:38:27.865Z,21.91
2018-10-17T11:40:56.010Z,22.07
2018-10-17T11:43:24.152Z,22.27
2018-10-17T11:45:52.308Z,22.38
2018-10-17T11:48:20.431Z,22.31
2018-10-17T11:50:48.583Z,22.27
2018-10-17T11:53:16.834Z,22.42
2018-10-17T11:55:44.879Z,22.51
2018-10-17T11:58:13.763Z,22.53
2018-10-17T12:00:41.908Z,22.67
2018-10-17T12:03:10.094Z,22.71
2018-10-17T12:05:38.628Z,22.79
2018-10-17T12:08:06.544Z,22.95
2018-10-17T12:10:35.105Z,23.13
2018-10-17T12:13:03.406Z,23.13
2018-10-17T12:15:31.548Z,23.13
2018-10-17T12:17:59.747Z,23.05
2018-10-17T12:20:27.815Z,23.05
2018-10-17T12:22:57.340Z,23.11
2018-10-17T12:25:27.424Z,23.15
2018-10-17T12:27:55.858Z,23.13
2018-10-17T12:30:23.856Z,23.01
2018-10-17T12:32:52.007Z,22.98
2018-10-17T12:35:20.644Z,22.92
2018-10-17T12:37:48.765Z,22.88
2018-10-17T12:40:17.040Z,22.79
2018-10-17T12:45:46.320Z,22.70
2018-10-17T12:48:14.608Z,22.66
2018-10-17T12:50:42.752Z,22.62
2018-10-17T12:53:10.960Z,22.62
2018-10-17T13:01:38.254Z,22.97
2018-10-17T13:04:06.380Z,23.02
2018-10-17T13:06:34.498Z,23.14
2018-10-17T13:09:02.640Z,23.31
2018-10-17T13:11:31.502Z,23.42
2018-10-17T13:13:59.555Z,23.52
2018-10-17T13:16:27.856Z,23.55
2018-10-17T13:18:56.021Z,23.56
2018-10-17T13:21:24.136Z,23.61
2018-10-17T13:23:52.249Z,23.73
2018-10-17T13:26:20.433Z,23.77
2018-10-17T13:28:48.565Z,23.80
2018-10-17T13:31:16.740Z,23.83
2018-10-17T13:33:44.815Z,23.92
2018-10-17T13:36:13.069Z,24.02
2018-10-17T13:38:41.474Z,24.04
2018-10-17T13:41:09.924Z,23.94
2018-10-17T13:43:37.986Z,23.85
2018-10-17T13:46:06.118Z,23.82
2018-10-17T13:48:46.482Z,23.83
2018-10-17T13:51:14.805Z,23.77
2018-10-17T13:53:42.928Z,23.77
2018-10-17T13:56:11.068Z,23.79
2018-10-17T13:58:39.211Z,23.72
2018-10-17T14:01:07.351Z,23.71
2018-10-17T14:03:35.468Z,23.61
2018-10-17T14:06:03.677Z,23.42
2018-10-17T14:08:31.734Z,23.20
2018-10-17T14:10:59.887Z,23.17
2018-10-17T14:13:28.115Z,23.15
2018-10-17T14:15:56.153Z,23.13
2018-10-17T14:18:24.312Z,23.17
2018-10-17T14:20:52.447Z,23.10
2018-10-17T14:23:20.834Z,23.01
2018-10-17T14:25:49.200Z,22.92
2018-10-17T14:28:17.695Z,22.75
2018-10-17T14:30:46.512Z,22.60
2018-10-17T14:33:14.701Z,22.49
2018-10-17T14:35:42.794Z,22.44
2018-10-17T14:38:11.039Z,22.35
2018-10-17T14:40:39.441Z,22.28
2018-10-17T14:43:07.835Z,22.25
2018-10-17T14:45:35.960Z,22.17
2018-10-17T14:48:04.880Z,22.05
2018-10-17T14:50:32.933Z,21.95
2018-10-17T14:53:01.069Z,21.88
2018-10-17T14:55:29.187Z,21.80
2018-10-17T14:57:57.304Z,21.74
2018-10-17T15:00:25.497Z,21.73
2018-10-17T15:02:53.872Z,21.68
2018-10-17T15:05:21.995Z,21.68
2018-10-17T15:10:49.751Z,21.65
2018-10-17T15:13:29.952Z,21.64
2018-10-17T15:15:58.088Z,21.68
2018-10-17T15:18:26.225Z,21.64
2018-10-17T15:20:54.403Z,21.60
2018-10-17T15:23:22.482Z,21.57
2018-10-17T15:25:50.643Z,21.51
2018-10-17T15:28:18.768Z,21.50
2018-10-17T15:30:46.923Z,21.49
2018-10-17T15:33:15.354Z,21.42
2018-10-17T15:35:43.441Z,21.34
2018-10-17T15:38:11.722Z,21.21
2018-10-17T15:40:39.879Z,21.12
2018-10-17T15:43:08.071Z,21.04
2018-10-17T15:45:36.162Z,20.96
2018-10-17T15:48:05.171Z,20.90
2018-10-17T15:50:33.213Z,20.88
2018-10-17T15:53:01.424Z,20.85
2018-10-17T15:55:29.872Z,20.83
2018-10-17T15:57:57.987Z,20.81
2018-10-17T16:00:26.117Z,20.72
2018-10-17T16:02:54.407Z,20.69
2018-10-17T16:05:22.532Z,20.65
2018-10-17T16:07:50.655Z,20.59
2018-10-17T16:10:19.736Z,20.46
2018-10-17T16:12:48.418Z,20.43
2018-10-17T16:15:16.556Z,20.37
2018-10-17T16:17:45.216Z,20.32
2018-10-17T16:20:14.419Z,20.29
2018-10-17T16:22:42.772Z,20.26
2018-10-17T16:25:10.822Z,20.23
2018-10-17T16:27:39.150Z,20.16
2018-10-17T16:30:09.757Z,20.12
2018-10-17T16:32:38.039Z,20.02
2018-10-17T16:35:06.428Z,19.99
2018-10-17T16:37:34.760Z,19.92
2018-10-17T16:40:03.443Z,19.88
2018-10-17T16:42:31.736Z,19.84
2018-10-17T16:45:00.375Z,19.80
2018-10-17T16:47:28.559Z,19.75
2018-10-17T16:49:56.988Z,19.69
2018-10-17T16:52:25.356Z,19.64
2018-10-17T16:54:53.528Z,19.57
2018-10-17T16:57:22.092Z,19.47
2018-10-17T16:59:50.232Z,19.38
2018-10-17T17:02:18.356Z,19.32
2018-10-17T17:04:46.472Z,19.27
2018-10-17T17:07:14.608Z,19.21
2018-10-17T17:09:42.781Z,19.13
2018-10-17T17:12:10.959Z,19.08
2018-10-17T17:14:39.097Z,19.02
2018-10-17T17:17:07.172Z,18.94
2018-10-17T17:19:35.308Z,18.89
2018-10-17T17:22:03.752Z,18.89
2018-10-17T17:24:32.161Z,18.84
2018-10-17T17:27:00.291Z,18.78
2018-10-17T17:29:29.364Z,18.75
2018-10-17T17:31:57.572Z,18.72
2018-10-17T17:34:25.928Z,18.70
2018-10-17T17:36:54.331Z,18.64
2018-10-17T17:39:22.458Z,18.57
2018-10-17T17:41:50.757Z,18.50
2018-10-17T17:44:19.283Z,18.43
2018-10-17T17:46:47.468Z,18.40
2018-10-17T17:49:15.555Z,18.34
2018-10-17T17:51:43.687Z,18.32
2018-10-17T17:54:11.815Z,18.30
2018-10-17T17:56:39.969Z,18.27
2018-10-17T17:59:08.354Z,18.23
2018-10-17T18:01:37.500Z,18.21
2018-10-17T18:04:05.808Z,18.17
2018-10-17T18:06:34.536Z,18.09
2018-10-17T18:09:02.632Z,18.08
2018-10-17T18:11:30.808Z,18.03
2018-10-17T18:13:59.329Z,18.02
2018-10-17T18:16:28.367Z,17.99
2018-10-17T18:18:56.714Z,17.96
2018-10-17T18:21:24.867Z,17.93
2018-10-17T18:23:53.364Z,17.90
2018-10-17T18:26:22.176Z,17.87
2018-10-17T18:28:51.119Z,17.86
2018-10-17T18:31:19.260Z,17.82
2018-10-17T18:33:47.524Z,17.82
2018-10-17T18:36:15.659Z,17.79
2018-10-17T18:38:43.874Z,17.76
2018-10-17T18:41:12.033Z,17.74
2018-10-17T18:43:41.199Z,17.69
2018-10-17T18:46:09.340Z,17.63
2018-10-17T18:48:37.471Z,17.58
2018-10-17T18:51:05.825Z,17.48
2018-10-17T18:53:33.930Z,17.45
2018-10-17T18:56:02.120Z,17.43
2018-10-17T18:58:30.180Z,17.40
2018-10-17T19:00:58.329Z,17.36
2018-10-17T19:03:26.456Z,17.34
2018-10-17T19:05:54.583Z,17.28
2018-10-17T19:08:22.723Z,17.27
2018-10-17T19:10:50.927Z,17.25
2018-10-17T19:13:19.056Z,17.21
2018-10-17T19:15:47.233Z,17.16
2018-10-17T19:18:15.312Z,17.11
2018-10-17T19:20:43.447Z,17.12
2018-10-17T19:23:11.585Z,17.08
2018-10-17T19:25:39.715Z,17.03
2018-10-17T19:28:08.636Z,17.00
2018-10-17T19:30:36.780Z,16.97
2018-10-17T19:33:05.074Z,16.96
2018-10-17T19:35:33.182Z,16.96
2018-10-17T19:38:01.399Z,16.94
2018-10-17T19:40:29.526Z,16.94
2018-10-17T19:42:57.664Z,16.92
2018-10-17T19:45:25.800Z,16.91
2018-10-17T19:47:54.033Z,16.86
2018-10-17T19:50:22.076Z,16.88
2018-10-17T19:52:50.196Z,16.88
2018-10-17T19:55:18.360Z,16.88
2018-10-17T19:57:46.520Z,16.85
2018-10-17T20:00:15.192Z,16.84
2018-10-17T20:02:43.720Z,16.83
2018-10-17T20:05:12.045Z,16.82
2018-10-17T20:07:40.752Z,16.79
2018-10-17T20:10:08.826Z,16.77
2018-10-17T20:12:37.041Z,16.78
2018-10-17T20:15:05.765Z,16.77
2018-10-17T20:17:33.840Z,16.77
2018-10-17T20:20:02.012Z,16.73
2018-10-17T20:22:30.164Z,16.72
2018-10-17T20:24:58.416Z,16.74
2018-10-17T20:27:26.516Z,16.72
2018-10-17T20:29:54.639Z,16.69
2018-10-17T20:32:22.761Z,16.71
2018-10-17T20:34:50.900Z,16.73
2018-10-17T20:37:19.052Z,16.71
2018-10-17T20:39:47.412Z,16.67
2018-10-17T20:42:16.447Z,16.67
2018-10-17T20:44:44.560Z,16.69
2018-10-17T20:47:12.705Z,16.70
2018-10-17T20:49:40.848Z,16.69
2018-10-17T20:52:08.983Z,16.69
2018-10-17T20:54:37.116Z,16.68
2018-10-17T20:57:05.807Z,16.66
2018-10-17T20:59:33.955Z,16.63
2018-10-17T21:02:02.215Z,16.60
2018-10-17T21:04:30.245Z,16.57
2018-10-17T21:06:58.371Z,16.56
2018-10-17T21:09:26.511Z,16.56
2018-10-17T21:11:54.636Z,16.54
2018-10-17T21:14:22.796Z,16.51
2018-10-17T21:16:50.920Z,16.51
2018-10-17T21:19:19.076Z,16.49
2018-10-17T21:21:47.217Z,16.47
2018-10-17T21:24:15.355Z,16.45
2018-10-17T21:26:43.508Z,16.43
2018-10-17T21:29:11.595Z,16.41
2018-10-17T21:31:39.724Z,16.39
2018-10-17T21:34:07.844Z,16.37
2018-10-17T21:36:35.984Z,16.34
2018-10-17T21:39:08.799Z,16.33
2018-10-17T21:41:36.951Z,16.32
2018-10-17T21:44:05.742Z,16.28
2018-10-17T21:46:33.783Z,16.28
2018-10-17T21:49:02.135Z,16.26
2018-10-17T21:51:30.272Z,16.22
2018-10-17T21:53:58.619Z,16.21
2018-10-17T21:56:26.766Z,16.22
2018-10-17T21:58:54.894Z,16.22
2018-10-17T22:01:23.272Z,16.21
2018-10-17T22:03:51.387Z,16.20
2018-10-17T22:06:19.533Z,16.21
2018-10-17T22:08:47.691Z,16.22
2018-10-17T22:11:15.968Z,16.21
2018-10-17T22:13:44.376Z,16.17
2018-10-17T22:16:13.267Z,16.16
2018-10-17T22:18:41.616Z,16.14
2018-10-17T22:21:10.060Z,16.15
2018-10-17T22:23:38.198Z,16.14
2018-10-17T22:26:06.384Z,16.12
2018-10-17T22:28:34.664Z,16.13
2018-10-17T22:31:03.000Z,16.12
2018-10-17T22:33:31.128Z,16.12
2018-10-17T22:35:59.250Z,16.15
2018-10-17T22:38:27.378Z,16.20
2018-10-17T22:40:55.521Z,16.23
2018-10-17T22:43:23.651Z,16.24
2018-10-17T22:45:51.784Z,16.26
2018-10-17T22:48:19.924Z,16.24
2018-10-17T22:50:48.060Z,16.29
2018-10-17T22:53:16.298Z,16.31
2018-10-17T22:55:45.049Z,16.29
2018-10-17T22:58:13.123Z,16.32
2018-10-17T23:00:41.637Z,16.31
2018-10-17T23:03:09.771Z,16.30
2018-10-17T23:05:37.944Z,16.29
2018-10-17T23:08:06.153Z,16.31
2018-10-17T23:10:34.203Z,16.31
2018-10-17T23:13:02.329Z,16.31
2018-10-17T23:15:30.464Z,16.33
2018-10-17T23:17:58.811Z,16.30
2018-10-17T23:20:27.053Z,16.31
2018-10-17T23:22:55.424Z,16.33
2018-10-17T23:25:23.547Z,16.31
2018-10-17T23:27:51.697Z,16.31
2018-10-17T23:30:19.819Z,16.31
2018-10-17T23:32:48.160Z,16.28
2018-10-17T23:35:16.296Z,16.25
2018-10-17T23:37:44.420Z,16.23
2018-10-17T23:40:12.536Z,16.22
2018-10-17T23:42:40.782Z,16.21
2018-10-17T23:45:09.135Z,16.17
2018-10-17T23:47:37.512Z,16.16
2018-10-17T23:50:06.224Z,16.15
2018-10-17T23:52:34.263Z,16.16
2018-10-17T23:55:02.399Z,16.12
2018-10-17T23:57:30.540Z,16.12
2018-10-17T23:59:58.688Z,16.08
